createdAt,value
2023-04-10T00:02:11.906Z,84.10
2023-04-10T00:07:17.021Z,84.00
2023-04-10T00:12:20.627Z,83.80
2023-04-10T00:17:24.025Z,83.60
2023-04-10T00:22:29.082Z,83.50
2023-04-10T00:27:32.450Z,83.60
2023-04-10T00:32:35.889Z,83.40
2023-04-10T00:37:40.975Z,83.50
2023-04-10T00:42:44.844Z,83.50
2023-04-10T00:47:48.340Z,83.40
2023-04-10T00:52:53.228Z,83.40
2023-04-10T00:57:58.153Z,82.90
2023-04-10T01:03:02.253Z,82.80
2023-04-10T01:08:13.608Z,82.40
2023-04-10T01:13:24.396Z,82.50
2023-04-10T01:18:34.799Z,82.90
2023-04-10T01:23:58.809Z,82.90
2023-04-10T01:29:05.310Z,82.90
2023-04-10T01:34:11.442Z,83.10
2023-04-10T01:39:15.932Z,83.10
2023-04-10T01:44:26.098Z,82.90
2023-04-10T01:49:31.398Z,82.90
2023-04-10T01:54:35.720Z,83.00
2023-04-10T01:59:40.753Z,82.80
2023-04-10T02:04:46.563Z,82.60
2023-04-10T02:09:59.505Z,82.50
2023-04-10T02:15:06.560Z,82.40
2023-04-10T02:20:11.717Z,82.40
2023-04-10T02:25:15.882Z,82.40
2023-04-10T02:30:20.777Z,82.40
2023-04-10T02:35:24.153Z,82.30
2023-04-10T02:40:27.538Z,82.00
2023-04-10T02:45:33.860Z,82.10
2023-04-10T02:50:37.239Z,82.40
2023-04-10T02:55:41.883Z,82.30
2023-04-10T03:00:50.787Z,82.40
2023-04-10T03:05:54.545Z,82.50
2023-04-10T03:10:57.981Z,82.30
2023-04-10T03:16:02.719Z,82.20
2023-04-10T03:21:06.696Z,82.10
2023-04-10T03:26:10.175Z,82.10
2023-04-10T03:31:14.937Z,82.30
2023-04-10T03:36:18.692Z,82.30
2023-04-10T03:41:25.454Z,82.60
2023-04-10T03:46:31.435Z,82.80
2023-04-10T03:51:34.848Z,83.10
2023-04-10T03:56:38.209Z,83.40
2023-04-10T04:01:43.318Z,83.50
2023-04-10T04:06:47.081Z,83.50
2023-04-10T04:11:50.428Z,83.40
2023-04-10T04:16:55.340Z,83.30
2023-04-10T04:22:00.390Z,83.20
2023-04-10T04:27:03.819Z,83.20
2023-04-10T04:32:09.055Z,83.30
2023-04-10T04:37:12.468Z,83.30
2023-04-10T04:42:15.923Z,83.40
2023-04-10T04:47:20.644Z,83.90
2023-04-10T04:52:24.212Z,83.80
2023-04-10T04:57:27.607Z,84.00
2023-04-10T05:02:32.478Z,84.30
2023-04-10T05:07:36.014Z,84.60
2023-04-10T05:12:41.915Z,84.60
2023-04-10T05:17:46.763Z,84.70
2023-04-10T05:22:50.322Z,84.80
2023-04-10T05:27:53.723Z,84.90
2023-04-10T05:32:58.561Z,85.00
2023-04-10T05:38:02.244Z,85.00
2023-04-10T05:43:05.888Z,85.00
2023-04-10T05:48:11.244Z,85.00
2023-04-10T05:53:15.904Z,84.80
2023-04-10T05:58:19.244Z,84.80
2023-04-10T06:03:24.129Z,85.00
2023-04-10T06:08:27.732Z,85.40
2023-04-10T06:13:32.424Z,85.40
2023-04-10T06:18:38.567Z,85.40
2023-04-10T06:23:42.152Z,85.80
2023-04-10T06:28:45.883Z,86.10
2023-04-10T06:33:51.228Z,86.20
2023-04-10T06:38:54.933Z,85.80
2023-04-10T06:43:59.669Z,86.80
2023-04-10T06:49:06.339Z,86.80
2023-04-10T06:54:09.690Z,86.60
2023-04-10T06:59:13.314Z,86.60
2023-04-10T07:04:18.053Z,86.40
2023-04-10T07:09:21.402Z,86.30
2023-04-10T07:14:24.832Z,86.30
2023-04-10T07:19:29.777Z,86.40
2023-04-10T07:24:33.432Z,86.30
2023-04-10T07:29:36.834Z,86.20
2023-04-10T07:34:42.796Z,86.30
2023-04-10T07:39:46.247Z,86.10
2023-04-10T07:44:49.659Z,85.90
2023-04-10T07:49:54.376Z,85.70
2023-04-10T07:54:57.778Z,85.50
2023-04-10T08:00:01.276Z,85.40
2023-04-10T08:05:06.789Z,85.50
2023-04-10T08:10:11.403Z,85.40
2023-04-10T08:15:14.838Z,84.80
2023-04-10T08:20:19.631Z,85.30
2023-04-10T08:25:23.103Z,84.60
2023-04-10T08:30:26.801Z,84.70
2023-04-10T08:35:31.544Z,84.40
2023-04-10T08:40:38.885Z,84.40
2023-04-10T08:45:42.612Z,84.70
2023-04-10T08:50:48.354Z,84.10
2023-04-10T08:55:51.801Z,84.10
2023-04-10T09:00:55.801Z,83.70
2023-04-10T09:06:05.083Z,83.30
2023-04-10T09:11:08.509Z,83.40
2023-04-10T09:16:13.044Z,82.90
2023-04-10T09:21:21.219Z,82.90
2023-04-10T09:26:29.102Z,82.80
2023-04-10T09:31:34.860Z,82.30
2023-04-10T09:36:41.422Z,83.00
2023-04-10T09:41:53.300Z,81.80
2023-04-10T09:46:57.244Z,81.70
2023-04-10T09:52:18.246Z,81.30
2023-04-10T09:57:23.526Z,81.10
2023-04-10T10:02:31.370Z,80.40
2023-04-10T10:07:37.772Z,80.60
2023-04-10T10:12:50.597Z,80.60
2023-04-10T10:18:01.476Z,80.20
2023-04-10T10:23:08.601Z,78.40
2023-04-10T10:28:14.281Z,79.30
2023-04-10T10:33:18.641Z,79.90
2023-04-10T10:38:23.977Z,79.80
2023-04-10T10:43:36.899Z,79.30
2023-04-10T10:48:40.260Z,78.90
2023-04-10T10:53:45.993Z,78.60
2023-04-10T10:58:50.490Z,78.00
2023-04-10T11:03:54.259Z,78.80
2023-04-10T11:08:59.147Z,77.80
2023-04-10T11:14:18.129Z,77.60
2023-04-10T11:19:25.204Z,77.40
2023-04-10T11:24:31.069Z,76.40
2023-04-10T11:29:34.922Z,75.90
2023-04-10T11:34:45.215Z,74.80
2023-04-10T11:39:50.321Z,74.70
2023-04-10T11:44:53.714Z,74.10
2023-04-10T11:49:58.675Z,74.30
2023-04-10T11:55:04.018Z,73.70
2023-04-10T12:00:08.982Z,73.50
2023-04-10T12:05:12.732Z,73.20
2023-04-10T12:10:17.998Z,74.00
2023-04-10T12:15:28.663Z,72.20
2023-04-10T12:20:32.242Z,71.00
2023-04-10T12:25:37.253Z,70.40
2023-04-10T12:30:52.877Z,70.20
2023-04-10T12:35:56.909Z,70.60
2023-04-10T12:41:02.164Z,69.80
2023-04-10T12:46:07.138Z,69.30
2023-04-10T12:51:10.573Z,68.20
2023-04-10T12:56:18.338Z,67.60
2023-04-10T13:01:21.977Z,66.40
2023-04-10T13:06:25.601Z,64.00
2023-04-10T13:11:30.564Z,64.60
2023-04-10T13:16:34.071Z,65.80
2023-04-10T13:21:37.471Z,65.80
2023-04-10T13:26:42.196Z,65.50
2023-04-10T13:31:45.648Z,64.10
2023-04-10T13:36:50.146Z,63.40
2023-04-10T13:41:55.046Z,62.40
2023-04-10T13:46:59.377Z,61.90
2023-04-10T13:52:02.821Z,61.90
2023-04-10T13:57:08.033Z,61.10
2023-04-10T14:02:11.899Z,60.70
2023-04-10T14:07:15.402Z,61.10
2023-04-10T14:12:21.025Z,61.60
2023-04-10T14:17:25.051Z,60.30
2023-04-10T14:22:30.304Z,57.90
2023-04-10T14:27:35.136Z,57.00
2023-04-10T14:32:40.589Z,56.10
2023-04-10T14:37:44.237Z,55.20
2023-04-10T14:42:49.059Z,56.10
2023-04-10T14:47:52.575Z,52.90
2023-04-10T14:52:55.971Z,52.70
2023-04-10T14:58:01.435Z,49.30
2023-04-10T15:03:06.542Z,48.50
2023-04-10T15:08:10.099Z,44.70
2023-04-10T15:13:14.789Z,42.50
2023-04-10T15:18:18.251Z,44.10
2023-04-10T15:23:21.682Z,42.30
2023-04-10T15:28:28.170Z,39.70
2023-04-10T15:33:31.618Z,36.50
2023-04-10T15:38:36.397Z,38.00
2023-04-10T15:43:42.490Z,35.70
2023-04-10T15:48:45.963Z,35.00
2023-04-10T15:53:49.360Z,34.50
2023-04-10T15:58:54.692Z,35.70
2023-04-10T16:03:58.486Z,35.20
2023-04-10T16:09:03.536Z,35.40
2023-04-10T16:14:10.975Z,37.30
2023-04-10T16:19:14.554Z,36.00
2023-04-10T16:24:18.367Z,35.10
2023-04-10T16:29:23.142Z,35.40
2023-04-10T16:34:26.596Z,36.20
2023-04-10T16:39:30.030Z,36.50
2023-04-10T16:44:35.138Z,36.00
2023-04-10T16:49:40.311Z,35.50
2023-04-10T16:54:43.756Z,36.30
2023-04-10T16:59:48.794Z,37.10
2023-04-10T17:04:52.213Z,37.80
2023-04-10T17:09:55.631Z,38.80
2023-04-10T17:15:00.612Z,39.70
2023-04-10T17:20:04.095Z,40.40
2023-04-10T17:25:08.632Z,41.10
2023-04-10T17:30:14.847Z,42.10
2023-04-10T17:35:20.311Z,42.90
2023-04-10T17:40:25.017Z,43.90
2023-04-10T17:45:29.786Z,44.80
2023-04-10T17:50:33.321Z,45.40
2023-04-10T17:55:40.208Z,46.30
2023-04-10T18:00:45.328Z,47.10
2023-04-10T18:05:48.697Z,47.60
2023-04-10T18:10:52.149Z,48.30
2023-04-10T18:15:56.912Z,48.90
2023-04-10T18:21:03.675Z,49.30
2023-04-10T18:26:07.428Z,49.60
2023-04-10T18:31:14.683Z,49.90
2023-04-10T18:36:20.911Z,50.30
2023-04-10T18:41:24.601Z,50.90
2023-04-10T18:46:30.220Z,51.30
2023-04-10T18:51:35.554Z,52.00
2023-04-10T18:56:39.672Z,52.30
2023-04-10T19:01:44.747Z,52.40
2023-04-10T19:06:48.254Z,52.80
2023-04-10T19:11:53.793Z,53.20
2023-04-10T19:16:58.750Z,54.50
2023-04-10T19:22:02.265Z,54.80
2023-04-10T19:27:06.442Z,54.00
2023-04-10T19:32:11.407Z,54.30
2023-04-10T19:37:14.786Z,54.50
2023-04-10T19:42:18.204Z,55.00
2023-04-10T19:47:23.275Z,55.50
2023-04-10T19:52:27.454Z,55.80
2023-04-10T19:57:30.874Z,56.00
2023-04-10T20:02:36.098Z,55.80
2023-04-10T20:07:39.614Z,56.20
2023-04-10T20:12:43.059Z,56.60
2023-04-10T20:17:47.893Z,56.90
2023-04-10T20:22:51.487Z,57.00
2023-04-10T20:27:55.155Z,57.20
2023-04-10T20:33:00.021Z,57.30
2023-04-10T20:38:03.670Z,57.30
2023-04-10T20:43:11.061Z,57.50
2023-04-10T20:48:15.936Z,57.90
2023-04-10T20:53:19.307Z,58.10
2023-04-10T20:58:23.122Z,58.20
2023-04-10T21:03:28.193Z,58.30
2023-04-10T21:08:31.807Z,58.70
2023-04-10T21:13:37.008Z,58.90
2023-04-10T21:18:43.124Z,59.10
2023-04-10T21:23:46.582Z,59.20
2023-04-10T21:28:50.002Z,59.30
2023-04-10T21:33:55.032Z,59.70
2023-04-10T21:38:58.662Z,60.00
2023-04-10T21:44:02.050Z,60.20
2023-04-10T21:49:06.835Z,60.10
2023-04-10T21:54:10.271Z,60.30
2023-04-10T21:59:13.638Z,60.50
2023-04-10T22:04:18.547Z,60.70
2023-04-10T22:09:22.764Z,60.80
2023-04-10T22:14:26.641Z,60.90
2023-04-10T22:19:31.430Z,61.00
2023-04-10T22:24:35.387Z,61.00
2023-04-10T22:29:39.065Z,61.10
2023-04-10T22:34:44.448Z,61.40
2023-04-10T22:39:48.038Z,61.40
2023-04-10T22:44:53.976Z,61.60
2023-04-10T22:49:58.781Z,62.00
2023-04-10T22:55:02.178Z,62.10
2023-04-10T23:00:07.146Z,62.20
2023-04-10T23:05:12.097Z,61.90
2023-04-10T23:10:15.806Z,62.20
2023-04-10T23:15:19.250Z,62.20
2023-04-10T23:20:24.101Z,62.40
2023-04-10T23:25:27.451Z,62.50
2023-04-10T23:30:30.904Z,62.70
2023-04-10T23:35:35.657Z,62.80
2023-04-10T23:40:39.070Z,62.80
2023-04-10T23:45:42.487Z,62.80
2023-04-10T23:50:47.498Z,62.80
2023-04-10T23:55:51.939Z,63.10
